sensor_id;sensor_type;location;lat;lon;timestamp;P1;durP1;ratioP1;P2;durP2;ratioP2
7583;SDS011;3833;41.764;26.204;2023-07-16T00:01:59;3.70;;;3.50;;
7583;SDS011;3833;41.764;26.204;2023-07-16T00:04:26;4.20;;;4.00;;
7583;SDS011;3833;41.764;26.204;2023-07-16T00:06:53;9.33;;;8.73;;
7583;SDS011;3833;41.764;26.204;2023-07-16T00:09:20;3.47;;;3.27;;
7583;SDS011;3833;41.764;26.204;2023-07-16T00:11:47;5.60;;;5.30;;
7583;SDS011;3833;41.764;26.204;2023-07-16T00:14:15;2.70;;;2.50;;
7583;SDS011;3833;41.764;26.204;2023-07-16T00:16:42;3.10;;;2.40;;
7583;SDS011;3833;41.764;26.204;2023-07-16T00:19:09;2.83;;;2.63;;
7583;SDS011;3833;41.764;26.204;2023-07-16T00:21:37;3.07;;;2.70;;
7583;SDS011;3833;41.764;26.204;2023-07-16T00:24:04;3.33;;;2.57;;
7583;SDS011;3833;41.764;26.204;2023-07-16T00:26:31;3.10;;;2.70;;
7583;SDS011;3833;41.764;26.204;2023-07-16T00:28:57;2.60;;;2.40;;
7583;SDS011;3833;41.764;26.204;2023-07-16T00:31:26;2.70;;;2.50;;
7583;SDS011;3833;41.764;26.204;2023-07-16T00:33:52;2.47;;;2.30;;
7583;SDS011;3833;41.764;26.204;2023-07-16T00:36:19;2.37;;;2.20;;
7583;SDS011;3833;41.764;26.204;2023-07-16T00:38:46;3.33;;;2.60;;
7583;SDS011;3833;41.764;26.204;2023-07-16T00:41:13;3.00;;;2.80;;
7583;SDS011;3833;41.764;26.204;2023-07-16T00:43:40;2.80;;;2.60;;
7583;SDS011;3833;41.764;26.204;2023-07-16T00:46:07;3.07;;;2.50;;
7583;SDS011;3833;41.764;26.204;2023-07-16T00:48:35;2.93;;;2.40;;
7583;SDS011;3833;41.764;26.204;2023-07-16T00:51:02;2.80;;;2.50;;
7583;SDS011;3833;41.764;26.204;2023-07-16T00:53:29;4.33;;;2.50;;
7583;SDS011;3833;41.764;26.204;2023-07-16T00:55:56;2.60;;;2.40;;
7583;SDS011;3833;41.764;26.204;2023-07-16T00:58:23;2.73;;;2.53;;
7583;SDS011;3833;41.764;26.204;2023-07-16T01:00:51;3.33;;;2.77;;
7583;SDS011;3833;41.764;26.204;2023-07-16T01:03:17;3.40;;;2.53;;
7583;SDS011;3833;41.764;26.204;2023-07-16T01:05:47;2.77;;;2.57;;
7583;SDS011;3833;41.764;26.204;2023-07-16T01:08:18;4.23;;;2.53;;
7583;SDS011;3833;41.764;26.204;2023-07-16T01:10:48;3.20;;;2.90;;
7583;SDS011;3833;41.764;26.204;2023-07-16T01:13:15;2.90;;;2.70;;
7583;SDS011;3833;41.764;26.204;2023-07-16T01:15:43;2.70;;;2.50;;
7583;SDS011;3833;41.764;26.204;2023-07-16T01:18:09;2.93;;;2.40;;
7583;SDS011;3833;41.764;26.204;2023-07-16T01:20:36;3.07;;;2.83;;
7583;SDS011;3833;41.764;26.204;2023-07-16T01:23:17;3.20;;;2.90;;
7583;SDS011;3833;41.764;26.204;2023-07-16T01:26:08;2.60;;;2.40;;
7583;SDS011;3833;41.764;26.204;2023-07-16T01:31:47;2.37;;;2.17;;
7583;SDS011;3833;41.764;26.204;2023-07-16T01:34:16;2.70;;;2.50;;
7583;SDS011;3833;41.764;26.204;2023-07-16T01:36:43;4.23;;;2.70;;
7583;SDS011;3833;41.764;26.204;2023-07-16T01:39:10;2.90;;;2.70;;
7583;SDS011;3833;41.764;26.204;2023-07-16T01:41:37;3.20;;;2.90;;
7583;SDS011;3833;41.764;26.204;2023-07-16T01:44:04;5.80;;;3.50;;
7583;SDS011;3833;41.764;26.204;2023-07-16T01:46:31;3.00;;;2.80;;
7583;SDS011;3833;41.764;26.204;2023-07-16T01:48:59;4.00;;;2.90;;
7583;SDS011;3833;41.764;26.204;2023-07-16T01:51:26;4.37;;;3.03;;
7583;SDS011;3833;41.764;26.204;2023-07-16T01:53:53;6.37;;;3.10;;
7583;SDS011;3833;41.764;26.204;2023-07-16T01:56:20;3.70;;;3.17;;
7583;SDS011;3833;41.764;26.204;2023-07-16T01:58:46;3.20;;;3.00;;
7583;SDS011;3833;41.764;26.204;2023-07-16T02:01:13;2.90;;;2.70;;
7583;SDS011;3833;41.764;26.204;2023-07-16T02:03:40;3.57;;;2.77;;
7583;SDS011;3833;41.764;26.204;2023-07-16T02:06:08;3.93;;;2.70;;
7583;SDS011;3833;41.764;26.204;2023-07-16T02:08:35;3.77;;;3.03;;
7583;SDS011;3833;41.764;26.204;2023-07-16T02:11:02;3.30;;;2.87;;
7583;SDS011;3833;41.764;26.204;2023-07-16T02:13:28;3.33;;;3.03;;
7583;SDS011;3833;41.764;26.204;2023-07-16T02:15:55;3.10;;;2.80;;
7583;SDS011;3833;41.764;26.204;2023-07-16T02:18:22;3.00;;;2.80;;
7583;SDS011;3833;41.764;26.204;2023-07-16T02:20:49;3.77;;;2.87;;
7583;SDS011;3833;41.764;26.204;2023-07-16T02:23:17;3.20;;;2.60;;
7583;SDS011;3833;41.764;26.204;2023-07-16T02:25:44;3.30;;;3.00;;
7583;SDS011;3833;41.764;26.204;2023-07-16T02:28:10;4.27;;;3.00;;
7583;SDS011;3833;41.764;26.204;2023-07-16T02:30:37;3.27;;;2.63;;
7583;SDS011;3833;41.764;26.204;2023-07-16T02:33:07;4.70;;;2.93;;
7583;SDS011;3833;41.764;26.204;2023-07-16T02:35:33;3.03;;;2.73;;
7583;SDS011;3833;41.764;26.204;2023-07-16T02:38:00;3.60;;;2.80;;
7583;SDS011;3833;41.764;26.204;2023-07-16T02:40:28;2.90;;;2.70;;
7583;SDS011;3833;41.764;26.204;2023-07-16T02:42:55;4.13;;;3.10;;
7583;SDS011;3833;41.764;26.204;2023-07-16T02:45:22;3.50;;;2.93;;
7583;SDS011;3833;41.764;26.204;2023-07-16T02:47:49;3.27;;;2.90;;
7583;SDS011;3833;41.764;26.204;2023-07-16T02:50:16;3.40;;;3.10;;
7583;SDS011;3833;41.764;26.204;2023-07-16T02:52:43;3.03;;;2.83;;
7583;SDS011;3833;41.764;26.204;2023-07-16T02:55:09;3.50;;;3.20;;
7583;SDS011;3833;41.764;26.204;2023-07-16T02:57:38;4.20;;;3.07;;
7583;SDS011;3833;41.764;26.204;2023-07-16T03:00:05;4.67;;;2.80;;
7583;SDS011;3833;41.764;26.204;2023-07-16T03:02:33;3.63;;;2.83;;
7583;SDS011;3833;41.764;26.204;2023-07-16T03:04:59;4.00;;;3.10;;
7583;SDS011;3833;41.764;26.204;2023-07-16T03:07:26;3.40;;;3.10;;
7583;SDS011;3833;41.764;26.204;2023-07-16T03:09:53;3.47;;;2.90;;
7583;SDS011;3833;41.764;26.204;2023-07-16T03:12:20;3.47;;;3.17;;
7583;SDS011;3833;41.764;26.204;2023-07-16T03:14:49;3.43;;;3.07;;
7583;SDS011;3833;41.764;26.204;2023-07-16T03:17:19;3.00;;;2.80;;
7583;SDS011;3833;41.764;26.204;2023-07-16T03:19:46;4.07;;;3.40;;
7583;SDS011;3833;41.764;26.204;2023-07-16T03:22:13;4.63;;;3.00;;
7583;SDS011;3833;41.764;26.204;2023-07-16T03:24:39;3.93;;;3.13;;
7583;SDS011;3833;41.764;26.204;2023-07-16T03:27:06;3.57;;;3.33;;
7583;SDS011;3833;41.764;26.204;2023-07-16T03:29:33;3.50;;;3.20;;
7583;SDS011;3833;41.764;26.204;2023-07-16T03:32:02;2.90;;;2.70;;
7583;SDS011;3833;41.764;26.204;2023-07-16T03:34:29;4.10;;;3.70;;
7583;SDS011;3833;41.764;26.204;2023-07-16T03:36:56;3.60;;;3.30;;
7583;SDS011;3833;41.764;26.204;2023-07-16T03:39:23;3.57;;;3.27;;
7583;SDS011;3833;41.764;26.204;2023-07-16T03:41:49;3.40;;;3.10;;
7583;SDS011;3833;41.764;26.204;2023-07-16T03:44:16;4.07;;;3.30;;
7583;SDS011;3833;41.764;26.204;2023-07-16T03:46:43;3.30;;;3.00;;
7583;SDS011;3833;41.764;26.204;2023-07-16T03:49:11;4.07;;;3.30;;
7583;SDS011;3833;41.764;26.204;2023-07-16T03:51:38;3.27;;;2.97;;
7583;SDS011;3833;41.764;26.204;2023-07-16T03:54:05;3.70;;;3.23;;
7583;SDS011;3833;41.764;26.204;2023-07-16T03:56:32;3.60;;;3.20;;
7583;SDS011;3833;41.764;26.204;2023-07-16T03:58:59;3.33;;;3.03;;
7583;SDS011;3833;41.764;26.204;2023-07-16T04:01:25;3.43;;;3.13;;
7583;SDS011;3833;41.764;26.204;2023-07-16T04:03:52;3.10;;;2.80;;
7583;SDS011;3833;41.764;26.204;2023-07-16T04:06:21;4.03;;;3.50;;
7583;SDS011;3833;41.764;26.204;2023-07-16T04:08:48;4.03;;;3.20;;
7583;SDS011;3833;41.764;26.204;2023-07-16T04:11:14;4.77;;;3.40;;
7583;SDS011;3833;41.764;26.204;2023-07-16T04:13:41;3.37;;;3.07;;
7583;SDS011;3833;41.764;26.204;2023-07-16T04:16:08;4.07;;;3.20;;
7583;SDS011;3833;41.764;26.204;2023-07-16T04:18:35;5.50;;;3.03;;
7583;SDS011;3833;41.764;26.204;2023-07-16T04:21:02;3.63;;;3.30;;
7583;SDS011;3833;41.764;26.204;2023-07-16T04:23:30;5.13;;;3.20;;
7583;SDS011;3833;41.764;26.204;2023-07-16T04:25:57;2.83;;;2.60;;
7583;SDS011;3833;41.764;26.204;2023-07-16T04:28:24;4.53;;;3.43;;
7583;SDS011;3833;41.764;26.204;2023-07-16T04:30:51;5.40;;;3.00;;
7583;SDS011;3833;41.764;26.204;2023-07-16T04:33:17;3.90;;;2.90;;
7583;SDS011;3833;41.764;26.204;2023-07-16T04:35:45;3.80;;;3.30;;
7583;SDS011;3833;41.764;26.204;2023-07-16T04:38:11;3.40;;;3.10;;
7583;SDS011;3833;41.764;26.204;2023-07-16T04:40:41;3.57;;;3.27;;
7583;SDS011;3833;41.764;26.204;2023-07-16T04:43:08;3.03;;;2.77;;
7583;SDS011;3833;41.764;26.204;2023-07-16T04:45:35;2.97;;;2.67;;
7583;SDS011;3833;41.764;26.204;2023-07-16T04:48:02;5.40;;;3.00;;
7583;SDS011;3833;41.764;26.204;2023-07-16T04:50:29;3.17;;;2.83;;
7583;SDS011;3833;41.764;26.204;2023-07-16T04:52:56;3.07;;;2.80;;
7583;SDS011;3833;41.764;26.204;2023-07-16T04:55:23;3.43;;;3.10;;
7583;SDS011;3833;41.764;26.204;2023-07-16T04:57:51;4.33;;;2.90;;
7583;SDS011;3833;41.764;26.204;2023-07-16T05:00:19;3.60;;;3.10;;
7583;SDS011;3833;41.764;26.204;2023-07-16T05:02:46;4.73;;;3.23;;
7583;SDS011;3833;41.764;26.204;2023-07-16T05:05:13;4.50;;;3.27;;
7583;SDS011;3833;41.764;26.204;2023-07-16T05:07:40;3.87;;;3.43;;
7583;SDS011;3833;41.764;26.204;2023-07-16T05:10:07;3.70;;;3.40;;
7583;SDS011;3833;41.764;26.204;2023-07-16T05:12:34;5.00;;;3.80;;
7583;SDS011;3833;41.764;26.204;2023-07-16T05:15:03;4.83;;;3.50;;
7583;SDS011;3833;41.764;26.204;2023-07-16T05:17:30;4.77;;;3.30;;
7583;SDS011;3833;41.764;26.204;2023-07-16T05:19:57;7.63;;;4.00;;
7583;SDS011;3833;41.764;26.204;2023-07-16T05:22:24;5.43;;;3.57;;
7583;SDS011;3833;41.764;26.204;2023-07-16T05:24:51;3.70;;;3.40;;
7583;SDS011;3833;41.764;26.204;2023-07-16T05:27:18;4.20;;;3.60;;
7583;SDS011;3833;41.764;26.204;2023-07-16T05:29:45;4.60;;;3.80;;
7583;SDS011;3833;41.764;26.204;2023-07-16T05:32:14;4.33;;;3.50;;
7583;SDS011;3833;41.764;26.204;2023-07-16T05:34:41;4.57;;;3.63;;
7583;SDS011;3833;41.764;26.204;2023-07-16T05:37:08;6.47;;;4.47;;
7583;SDS011;3833;41.764;26.204;2023-07-16T05:39:35;4.87;;;3.33;;
7583;SDS011;3833;41.764;26.204;2023-07-16T05:42:01;4.97;;;3.20;;
7583;SDS011;3833;41.764;26.204;2023-07-16T05:44:29;8.07;;;5.63;;
7583;SDS011;3833;41.764;26.204;2023-07-16T05:46:55;4.73;;;3.63;;
7583;SDS011;3833;41.764;26.204;2023-07-16T05:49:24;4.97;;;4.47;;
7583;SDS011;3833;41.764;26.204;2023-07-16T05:51:52;8.57;;;5.27;;
7583;SDS011;3833;41.764;26.204;2023-07-16T05:54:19;6.90;;;4.40;;
7583;SDS011;3833;41.764;26.204;2023-07-16T05:56:46;5.00;;;4.20;;
7583;SDS011;3833;41.764;26.204;2023-07-16T05:59:13;3.70;;;3.40;;
7583;SDS011;3833;41.764;26.204;2023-07-16T06:01:40;5.10;;;3.77;;
7583;SDS011;3833;41.764;26.204;2023-07-16T06:04:07;3.50;;;3.20;;
7583;SDS011;3833;41.764;26.204;2023-07-16T06:06:35;4.47;;;3.40;;
7583;SDS011;3833;41.764;26.204;2023-07-16T06:09:02;3.80;;;3.23;;
7583;SDS011;3833;41.764;26.204;2023-07-16T06:11:29;4.30;;;3.70;;
7583;SDS011;3833;41.764;26.204;2023-07-16T06:13:56;5.27;;;3.67;;
7583;SDS011;3833;41.764;26.204;2023-07-16T06:16:23;4.37;;;3.53;;
7583;SDS011;3833;41.764;26.204;2023-07-16T06:18:50;4.20;;;3.73;;
7583;SDS011;3833;41.764;26.204;2023-07-16T06:21:17;4.10;;;3.70;;
7583;SDS011;3833;41.764;26.204;2023-07-16T06:23:45;6.47;;;3.97;;
7583;SDS011;3833;41.764;26.204;2023-07-16T06:26:12;4.10;;;3.73;;
7583;SDS011;3833;41.764;26.204;2023-07-16T06:28:39;6.13;;;3.97;;
7583;SDS011;3833;41.764;26.204;2023-07-16T06:31:05;6.00;;;3.57;;
7583;SDS011;3833;41.764;26.204;2023-07-16T06:33:32;4.10;;;3.50;;
7583;SDS011;3833;41.764;26.204;2023-07-16T06:35:59;4.60;;;3.20;;
7583;SDS011;3833;41.764;26.204;2023-07-16T06:38:26;5.93;;;3.20;;
7583;SDS011;3833;41.764;26.204;2023-07-16T06:40:54;4.20;;;3.40;;
7583;SDS011;3833;41.764;26.204;2023-07-16T06:43:21;3.40;;;3.10;;
7583;SDS011;3833;41.764;26.204;2023-07-16T06:45:48;3.40;;;3.10;;
7583;SDS011;3833;41.764;26.204;2023-07-16T06:48:16;3.50;;;3.20;;
7583;SDS011;3833;41.764;26.204;2023-07-16T06:50:46;3.73;;;3.43;;
7583;SDS011;3833;41.764;26.204;2023-07-16T06:53:13;4.83;;;3.57;;
7583;SDS011;3833;41.764;26.204;2023-07-16T06:55:40;3.90;;;3.33;;
7583;SDS011;3833;41.764;26.204;2023-07-16T06:58:11;3.80;;;3.50;;
7583;SDS011;3833;41.764;26.204;2023-07-16T07:00:39;4.17;;;3.60;;
7583;SDS011;3833;41.764;26.204;2023-07-16T07:03:07;5.97;;;3.07;;
7583;SDS011;3833;41.764;26.204;2023-07-16T07:05:34;4.33;;;3.43;;
7583;SDS011;3833;41.764;26.204;2023-07-16T07:08:02;4.27;;;3.30;;
7583;SDS011;3833;41.764;26.204;2023-07-16T07:10:29;4.40;;;3.00;;
7583;SDS011;3833;41.764;26.204;2023-07-16T07:12:57;4.23;;;3.30;;
7583;SDS011;3833;41.764;26.204;2023-07-16T07:15:26;3.60;;;2.70;;
7583;SDS011;3833;41.764;26.204;2023-07-16T07:17:53;4.97;;;3.03;;
7583;SDS011;3833;41.764;26.204;2023-07-16T07:20:19;3.87;;;3.30;;
7583;SDS011;3833;41.764;26.204;2023-07-16T07:22:46;4.13;;;3.57;;
7583;SDS011;3833;41.764;26.204;2023-07-16T07:25:13;5.60;;;2.97;;
7583;SDS011;3833;41.764;26.204;2023-07-16T07:27:40;2.93;;;2.73;;
7583;SDS011;3833;41.764;26.204;2023-07-16T07:30:07;3.67;;;3.30;;
7583;SDS011;3833;41.764;26.204;2023-07-16T07:32:37;3.57;;;2.73;;
7583;SDS011;3833;41.764;26.204;2023-07-16T07:35:05;6.57;;;3.00;;
7583;SDS011;3833;41.764;26.204;2023-07-16T07:37:32;3.90;;;2.70;;
7583;SDS011;3833;41.764;26.204;2023-07-16T07:39:59;3.23;;;2.70;;
7583;SDS011;3833;41.764;26.204;2023-07-16T07:42:25;2.97;;;2.77;;
7583;SDS011;3833;41.764;26.204;2023-07-16T07:44:53;4.03;;;3.57;;
7583;SDS011;3833;41.764;26.204;2023-07-16T07:47:20;4.80;;;4.20;;
7583;SDS011;3833;41.764;26.204;2023-07-16T07:49:50;4.13;;;3.73;;
7583;SDS011;3833;41.764;26.204;2023-07-16T07:52:18;4.13;;;3.83;;
7583;SDS011;3833;41.764;26.204;2023-07-16T07:54:45;4.10;;;3.80;;
7583;SDS011;3833;41.764;26.204;2023-07-16T07:57:12;4.10;;;3.13;;
7583;SDS011;3833;41.764;26.204;2023-07-16T07:59:39;3.60;;;3.27;;
7583;SDS011;3833;41.764;26.204;2023-07-16T08:02:06;3.53;;;3.23;;
7583;SDS011;3833;41.764;26.204;2023-07-16T08:04:33;4.03;;;3.63;;
7583;SDS011;3833;41.764;26.204;2023-07-16T08:07:01;3.97;;;2.83;;
7583;SDS011;3833;41.764;26.204;2023-07-16T08:09:28;4.03;;;3.13;;
7583;SDS011;3833;41.764;26.204;2023-07-16T08:11:56;3.53;;;3.23;;
7583;SDS011;3833;41.764;26.204;2023-07-16T08:14:23;3.77;;;3.23;;
7583;SDS011;3833;41.764;26.204;2023-07-16T08:16:50;3.83;;;3.53;;
7583;SDS011;3833;41.764;26.204;2023-07-16T08:19:17;4.50;;;3.90;;
7583;SDS011;3833;41.764;26.204;2023-07-16T08:21:44;3.93;;;3.57;;
7583;SDS011;3833;41.764;26.204;2023-07-16T08:24:12;5.40;;;4.20;;
7583;SDS011;3833;41.764;26.204;2023-07-16T08:26:39;5.30;;;4.13;;
7583;SDS011;3833;41.764;26.204;2023-07-16T08:29:06;3.20;;;3.00;;
7583;SDS011;3833;41.764;26.204;2023-07-16T08:31:33;3.20;;;2.90;;
7583;SDS011;3833;41.764;26.204;2023-07-16T08:34:00;3.50;;;3.17;;
7583;SDS011;3833;41.764;26.204;2023-07-16T08:36:27;4.00;;;3.70;;
7583;SDS011;3833;41.764;26.204;2023-07-16T08:38:54;4.30;;;3.90;;
7583;SDS011;3833;41.764;26.204;2023-07-16T08:41:22;5.37;;;4.00;;
7583;SDS011;3833;41.764;26.204;2023-07-16T08:43:50;4.50;;;4.20;;
7583;SDS011;3833;41.764;26.204;2023-07-16T08:46:17;4.70;;;4.40;;
7583;SDS011;3833;41.764;26.204;2023-07-16T08:48:44;3.70;;;3.30;;
7583;SDS011;3833;41.764;26.204;2023-07-16T08:51:12;4.38;;;4.03;;
7583;SDS011;3833;41.764;26.204;2023-07-16T08:53:41;4.30;;;3.92;;
7583;SDS011;3833;41.764;26.204;2023-07-16T08:56:08;4.63;;;4.33;;
7583;SDS011;3833;41.764;26.204;2023-07-16T08:58:37;3.53;;;3.23;;
7583;SDS011;3833;41.764;26.204;2023-07-16T09:01:05;4.78;;;3.03;;
7583;SDS011;3833;41.764;26.204;2023-07-16T09:03:32;3.25;;;2.95;;
7583;SDS011;3833;41.764;26.204;2023-07-16T09:05:59;3.33;;;2.97;;
7583;SDS011;3833;41.764;26.204;2023-07-16T09:08:26;2.75;;;2.50;;
7583;SDS011;3833;41.764;26.204;2023-07-16T09:10:54;3.40;;;3.10;;
7583;SDS011;3833;41.764;26.204;2023-07-16T09:13:22;3.42;;;3.13;;
7583;SDS011;3833;41.764;26.204;2023-07-16T09:15:53;3.03;;;2.50;;
7583;SDS011;3833;41.764;26.204;2023-07-16T09:18:21;3.28;;;2.97;;
7583;SDS011;3833;41.764;26.204;2023-07-16T09:20:48;4.55;;;4.15;;
7583;SDS011;3833;41.764;26.204;2023-07-16T09:23:16;3.13;;;2.92;;
7583;SDS011;3833;41.764;26.204;2023-07-16T09:25:44;2.85;;;2.63;;
7583;SDS011;3833;41.764;26.204;2023-07-16T09:28:11;5.18;;;4.88;;
7583;SDS011;3833;41.764;26.204;2023-07-16T09:30:41;4.25;;;3.95;;
7583;SDS011;3833;41.764;26.204;2023-07-16T09:33:12;6.82;;;6.32;;
7583;SDS011;3833;41.764;26.204;2023-07-16T09:35:40;13.45;;;12.85;;
7583;SDS011;3833;41.764;26.204;2023-07-16T09:38:09;12.05;;;11.45;;
7583;SDS011;3833;41.764;26.204;2023-07-16T09:40:36;13.95;;;13.35;;
7583;SDS011;3833;41.764;26.204;2023-07-16T09:43:03;19.00;;;18.20;;
7583;SDS011;3833;41.764;26.204;2023-07-16T09:45:30;19.55;;;18.75;;
7583;SDS011;3833;41.764;26.204;2023-07-16T09:47:58;20.90;;;20.10;;
7583;SDS011;3833;41.764;26.204;2023-07-16T09:50:27;18.85;;;18.13;;
7583;SDS011;3833;41.764;26.204;2023-07-16T09:52:56;6.50;;;6.13;;
7583;SDS011;3833;41.764;26.204;2023-07-16T09:55:23;6.88;;;6.38;;
7583;SDS011;3833;41.764;26.204;2023-07-16T09:57:52;13.48;;;12.77;;
7583;SDS011;3833;41.764;26.204;2023-07-16T10:00:20;10.18;;;9.68;;
7583;SDS011;3833;41.764;26.204;2023-07-16T10:02:48;19.48;;;18.65;;
7583;SDS011;3833;41.764;26.204;2023-07-16T10:05:17;19.20;;;18.33;;
7583;SDS011;3833;41.764;26.204;2023-07-16T10:07:50;7.95;;;4.30;;
7583;SDS011;3833;41.764;26.204;2023-07-16T10:10:18;4.32;;;4.00;;
7583;SDS011;3833;41.764;26.204;2023-07-16T10:12:54;5.93;;;5.53;;
7583;SDS011;3833;41.764;26.204;2023-07-16T10:15:24;6.57;;;6.15;;
7583;SDS011;3833;41.764;26.204;2023-07-16T10:17:52;8.90;;;8.40;;
7583;SDS011;3833;41.764;26.204;2023-07-16T10:20:27;6.20;;;5.70;;
7583;SDS011;3833;41.764;26.204;2023-07-16T10:22:56;6.78;;;6.20;;
7583;SDS011;3833;41.764;26.204;2023-07-16T10:25:24;6.22;;;5.75;;
7583;SDS011;3833;41.764;26.204;2023-07-16T10:27:52;5.60;;;5.20;;
7583;SDS011;3833;41.764;26.204;2023-07-16T10:30:19;6.38;;;5.97;;
7583;SDS011;3833;41.764;26.204;2023-07-16T10:32:47;6.72;;;6.13;;
7583;SDS011;3833;41.764;26.204;2023-07-16T10:35:14;4.57;;;4.28;;
7583;SDS011;3833;41.764;26.204;2023-07-16T10:37:41;4.47;;;4.18;;
7583;SDS011;3833;41.764;26.204;2023-07-16T10:40:11;4.10;;;3.78;;
7583;SDS011;3833;41.764;26.204;2023-07-16T10:42:41;4.32;;;3.92;;
7583;SDS011;3833;41.764;26.204;2023-07-16T10:45:09;6.50;;;6.13;;
7583;SDS011;3833;41.764;26.204;2023-07-16T10:47:37;4.78;;;4.45;;
7583;SDS011;3833;41.764;26.204;2023-07-16T10:50:05;6.78;;;6.38;;
7583;SDS011;3833;41.764;26.204;2023-07-16T10:52:33;12.48;;;11.88;;
7583;SDS011;3833;41.764;26.204;2023-07-16T10:55:00;10.85;;;10.35;;
7583;SDS011;3833;41.764;26.204;2023-07-16T10:57:28;14.13;;;13.52;;
7583;SDS011;3833;41.764;26.204;2023-07-16T10:59:56;6.88;;;6.47;;
7583;SDS011;3833;41.764;26.204;2023-07-16T11:02:24;6.45;;;6.05;;
7583;SDS011;3833;41.764;26.204;2023-07-16T11:04:52;5.43;;;5.03;;
7583;SDS011;3833;41.764;26.204;2023-07-16T11:07:19;6.82;;;6.22;;
7583;SDS011;3833;41.764;26.204;2023-07-16T11:09:47;13.43;;;12.63;;
7583;SDS011;3833;41.764;26.204;2023-07-16T11:12:17;15.23;;;14.32;;
7583;SDS011;3833;41.764;26.204;2023-07-16T11:14:47;12.07;;;11.25;;
7583;SDS011;3833;41.764;26.204;2023-07-16T11:17:15;16.85;;;16.05;;
7583;SDS011;3833;41.764;26.204;2023-07-16T11:19:44;11.63;;;10.73;;
7583;SDS011;3833;41.764;26.204;2023-07-16T11:22:11;16.80;;;15.73;;
7583;SDS011;3833;41.764;26.204;2023-07-16T11:24:39;5.82;;;5.20;;
7583;SDS011;3833;41.764;26.204;2023-07-16T11:27:12;6.30;;;5.90;;
7583;SDS011;3833;41.764;26.204;2023-07-16T11:29:39;8.50;;;7.97;;
7583;SDS011;3833;41.764;26.204;2023-07-16T11:32:09;35.58;;;32.95;;
7583;SDS011;3833;41.764;26.204;2023-07-16T11:34:35;7.88;;;7.38;;
7583;SDS011;3833;41.764;26.204;2023-07-16T11:37:09;15.38;;;14.48;;
7583;SDS011;3833;41.764;26.204;2023-07-16T11:39:36;14.70;;;13.95;;
7583;SDS011;3833;41.764;26.204;2023-07-16T11:42:03;7.70;;;7.18;;
7583;SDS011;3833;41.764;26.204;2023-07-16T11:44:32;13.60;;;12.70;;
7583;SDS011;3833;41.764;26.204;2023-07-16T11:47:00;16.75;;;15.85;;
7583;SDS011;3833;41.764;26.204;2023-07-16T11:49:29;10.90;;;10.35;;
7583;SDS011;3833;41.764;26.204;2023-07-16T11:51:56;9.40;;;8.88;;
7583;SDS011;3833;41.764;26.204;2023-07-16T11:54:24;16.58;;;15.77;;
7583;SDS011;3833;41.764;26.204;2023-07-16T11:56:51;14.88;;;14.07;;
7583;SDS011;3833;41.764;26.204;2023-07-16T11:59:18;17.38;;;16.42;;
7583;SDS011;3833;41.764;26.204;2023-07-16T12:01:49;16.42;;;15.32;;
7583;SDS011;3833;41.764;26.204;2023-07-16T12:04:16;16.23;;;15.52;;
7583;SDS011;3833;41.764;26.204;2023-07-16T12:06:44;9.25;;;8.55;;
7583;SDS011;3833;41.764;26.204;2023-07-16T12:09:11;16.92;;;16.02;;
7583;SDS011;3833;41.764;26.204;2023-07-16T12:11:38;14.73;;;13.93;;
7583;SDS011;3833;41.764;26.204;2023-07-16T12:14:05;19.30;;;18.50;;
7583;SDS011;3833;41.764;26.204;2023-07-16T12:16:32;12.93;;;12.27;;
7583;SDS011;3833;41.764;26.204;2023-07-16T12:18:59;16.30;;;15.55;;
7583;SDS011;3833;41.764;26.204;2023-07-16T12:21:26;26.08;;;24.88;;
7583;SDS011;3833;41.764;26.204;2023-07-16T12:23:54;13.68;;;12.98;;
7583;SDS011;3833;41.764;26.204;2023-07-16T12:26:21;6.88;;;6.53;;
7583;SDS011;3833;41.764;26.204;2023-07-16T12:28:48;11.95;;;11.35;;
7583;SDS011;3833;41.764;26.204;2023-07-16T12:31:15;12.40;;;11.88;;
7583;SDS011;3833;41.764;26.204;2023-07-16T12:33:43;11.63;;;11.05;;
7583;SDS011;3833;41.764;26.204;2023-07-16T12:36:10;11.40;;;10.70;;
7583;SDS011;3833;41.764;26.204;2023-07-16T12:38:37;8.63;;;8.07;;
7583;SDS011;3833;41.764;26.204;2023-07-16T12:41:05;11.32;;;10.63;;
7583;SDS011;3833;41.764;26.204;2023-07-16T12:43:32;11.10;;;10.40;;
7583;SDS011;3833;41.764;26.204;2023-07-16T12:46:00;19.95;;;18.85;;
7583;SDS011;3833;41.764;26.204;2023-07-16T12:48:28;19.70;;;18.73;;
7583;SDS011;3833;41.764;26.204;2023-07-16T12:50:55;17.63;;;16.90;;
7583;SDS011;3833;41.764;26.204;2023-07-16T12:53:22;12.88;;;11.93;;
7583;SDS011;3833;41.764;26.204;2023-07-16T12:55:49;12.40;;;11.63;;
7583;SDS011;3833;41.764;26.204;2023-07-16T12:58:18;18.77;;;17.98;;
7583;SDS011;3833;41.764;26.204;2023-07-16T13:00:45;17.90;;;17.10;;
7583;SDS011;3833;41.764;26.204;2023-07-16T13:03:12;19.00;;;18.20;;
7583;SDS011;3833;41.764;26.204;2023-07-16T13:05:41;20.15;;;18.90;;
7583;SDS011;3833;41.764;26.204;2023-07-16T13:08:08;17.75;;;16.90;;
7583;SDS011;3833;41.764;26.204;2023-07-16T13:10:35;18.75;;;17.75;;
7583;SDS011;3833;41.764;26.204;2023-07-16T13:13:03;19.95;;;18.80;;
7583;SDS011;3833;41.764;26.204;2023-07-16T13:15:31;20.20;;;19.17;;
7583;SDS011;3833;41.764;26.204;2023-07-16T13:17:58;18.90;;;17.90;;
7583;SDS011;3833;41.764;26.204;2023-07-16T13:20:26;21.13;;;19.92;;
7583;SDS011;3833;41.764;26.204;2023-07-16T13:22:55;7.20;;;6.60;;
7583;SDS011;3833;41.764;26.204;2023-07-16T13:25:22;6.60;;;6.18;;
7583;SDS011;3833;41.764;26.204;2023-07-16T13:27:49;20.52;;;19.42;;
7583;SDS011;3833;41.764;26.204;2023-07-16T13:30:18;17.10;;;16.30;;
7583;SDS011;3833;41.764;26.204;2023-07-16T13:32:48;15.18;;;14.48;;
7583;SDS011;3833;41.764;26.204;2023-07-16T13:35:15;14.43;;;13.73;;
7583;SDS011;3833;41.764;26.204;2023-07-16T13:37:42;14.55;;;13.85;;
7583;SDS011;3833;41.764;26.204;2023-07-16T13:40:11;13.90;;;13.10;;
7583;SDS011;3833;41.764;26.204;2023-07-16T13:42:38;15.10;;;14.15;;
7583;SDS011;3833;41.764;26.204;2023-07-16T13:45:06;14.18;;;13.48;;
7583;SDS011;3833;41.764;26.204;2023-07-16T13:47:33;14.55;;;13.77;;
7583;SDS011;3833;41.764;26.204;2023-07-16T13:50:02;15.60;;;14.90;;
7583;SDS011;3833;41.764;26.204;2023-07-16T13:52:29;14.43;;;13.73;;
7583;SDS011;3833;41.764;26.204;2023-07-16T13:54:56;14.88;;;14.18;;
7583;SDS011;3833;41.764;26.204;2023-07-16T13:57:23;16.02;;;15.13;;
7583;SDS011;3833;41.764;26.204;2023-07-16T13:59:50;15.63;;;14.73;;
7583;SDS011;3833;41.764;26.204;2023-07-16T14:02:17;15.23;;;14.43;;
7583;SDS011;3833;41.764;26.204;2023-07-16T14:04:44;15.85;;;14.95;;
7583;SDS011;3833;41.764;26.204;2023-07-16T14:07:12;7.20;;;6.78;;
7583;SDS011;3833;41.764;26.204;2023-07-16T14:09:39;7.35;;;6.85;;
7583;SDS011;3833;41.764;26.204;2023-07-16T14:12:06;15.68;;;14.80;;
7583;SDS011;3833;41.764;26.204;2023-07-16T14:14:33;14.93;;;14.15;;
7583;SDS011;3833;41.764;26.204;2023-07-16T14:17:00;16.27;;;15.50;;
7583;SDS011;3833;41.764;26.204;2023-07-16T14:19:28;17.63;;;16.73;;
7583;SDS011;3833;41.764;26.204;2023-07-16T14:21:56;18.83;;;17.98;;
7583;SDS011;3833;41.764;26.204;2023-07-16T14:24:24;19.38;;;18.17;;
7583;SDS011;3833;41.764;26.204;2023-07-16T14:26:51;18.80;;;17.70;;
7583;SDS011;3833;41.764;26.204;2023-07-16T14:29:18;17.38;;;16.48;;
7583;SDS011;3833;41.764;26.204;2023-07-16T14:31:45;19.02;;;18.05;;
7583;SDS011;3833;41.764;26.204;2023-07-16T14:34:12;13.88;;;13.18;;
7583;SDS011;3833;41.764;26.204;2023-07-16T14:36:40;18.27;;;17.10;;
7583;SDS011;3833;41.764;26.204;2023-07-16T14:39:07;18.00;;;17.13;;
7583;SDS011;3833;41.764;26.204;2023-07-16T14:41:36;18.73;;;17.58;;
7583;SDS011;3833;41.764;26.204;2023-07-16T14:44:03;15.98;;;15.20;;
7583;SDS011;3833;41.764;26.204;2023-07-16T14:46:30;18.95;;;17.77;;
7583;SDS011;3833;41.764;26.204;2023-07-16T14:48:57;17.85;;;17.05;;
7583;SDS011;3833;41.764;26.204;2023-07-16T14:51:24;15.55;;;14.65;;
7583;SDS011;3833;41.764;26.204;2023-07-16T14:53:51;19.65;;;18.70;;
7583;SDS011;3833;41.764;26.204;2023-07-16T14:56:18;20.02;;;19.10;;
7583;SDS011;3833;41.764;26.204;2023-07-16T14:58:46;15.52;;;14.77;;
7583;SDS011;3833;41.764;26.204;2023-07-16T15:01:13;20.58;;;19.58;;